Terminal Aerodrome Forecast
Issued by NWS

Home | Current Version | Previous Version | Text Only | Print | Product List | Glossary On
Versions: 1 2 3 4 5 6 7 8 9 10 11 12 13 14 15 16 17 18 19 20 21 22 23 24 25 26 27 28 29 30 31 32
000
FTUS46 KPDT 082324 CCA
TAFBDN
TAF COR
KBDN 082324Z 0900/0924 VRB05KT 2SM -SNPL BR SCT005 BKN025
     FM090400 VRB05KT 5SM -FZDZPL SCT010 BKN025
     FM091000 21006KT P6SM SCT035 BKN050
     FM092000 21009KT 6SM -SHSNRA SCT015 BKN035=

USA.gov is the U.S. government's official web portal to all federal, state and local government web resources and services.